Time;durP1;ratioP1;P1;durP2;ratioP2;P2;SDS_P1;SDS_P2;PMS_P1;PMS_P2;Temp;Humidity;BMP_temperature;BMP_pressure;BME280_temperature;BME280_humidity;BME280_pressure;Samples;Min_cycle;Max_cycle;Signal;HPM_P1;HPM_P2
2023/02/12 00:00:33;;;;;;;;;;;21.60;52.00;;;;;;1561162;75;725;-67
2023/02/12 00:02:35;;;;;;;;;;;21.60;52.00;;;;;;1548687;75;1936;-68
2023/02/12 00:04:37;;;;;;;;;;;21.70;52.00;;;;;;1552680;75;833;-69
2023/02/12 00:06:39;;;;;;;;;;;21.60;52.10;;;;;;1555446;76;794;-70
2023/02/12 00:08:41;;;;;;;;;;;21.60;52.40;;;;;;1557761;76;749;-71
2023/02/12 00:10:43;;;;;;;;;;;21.60;52.40;;;;;;1553073;75;783;-71
2023/02/12 00:12:45;;;;;;;;;;;21.60;52.30;;;;;;1557782;76;1747;-69
2023/02/12 00:14:47;;;;;;;;;;;21.60;52.30;;;;;;1551397;75;753;-69
2023/02/12 00:16:49;;;;;;;;;;;21.60;52.20;;;;;;1553134;76;681;-69
2023/02/12 00:18:51;;;;;;;;;;;21.60;52.20;;;;;;1554163;75;706;-70
2023/02/12 00:20:53;;;;;;;;;;;21.60;52.20;;;;;;1547464;75;757;-67
2023/02/12 00:22:55;;;;;;;;;;;21.60;52.20;;;;;;1540057;75;1944;-68
2023/02/12 00:24:57;;;;;;;;;;;21.60;52.10;;;;;;1540590;75;1296;-69
2023/02/12 00:26:59;;;;;;;;;;;21.70;52.10;;;;;;1544880;76;748;-69
2023/02/12 00:29:00;;;;;;;;;;;21.60;51.90;;;;;;1542295;76;763;-66
2023/02/12 00:31:06;;;;;;;;;;;21.70;52.20;;;;;;1543348;75;685;-65
2023/02/12 00:33:08;;;;;;;;;;;21.60;52.10;;;;;;1539227;76;1153;-66
2023/02/12 00:35:10;;;;;;;;;;;21.60;52.30;;;;;;1537221;75;786;-62
2023/02/12 00:37:12;;;;;;;;;;;21.60;52.20;;;;;;1543242;76;700;-65
2023/02/12 00:39:14;;;;;;;;;;;21.60;52.10;;;;;;1536546;75;1516;-66
2023/02/12 00:41:16;;;;;;;;;;;21.60;52.00;;;;;;1544064;76;1940;-64
2023/02/12 00:43:18;;;;;;;;;;;21.60;52.00;;;;;;1541162;76;795;-64
2023/02/12 00:45:19;;;;;;;;;;;21.60;51.90;;;;;;1542041;75;733;-66
2023/02/12 00:47:21;;;;;;;;;;;21.60;52.00;;;;;;1541554;75;794;-64
2023/02/12 00:49:23;;;;;;;;;;;21.60;51.90;;;;;;1535311;76;777;-65
2023/02/12 00:51:25;;;;;;;;;;;21.60;51.80;;;;;;1544481;76;1157;-66
2023/02/12 00:53:27;;;;;;;;;;;21.70;51.90;;;;;;1553352;75;1542;-66
2023/02/12 00:55:31;;;;;;;;;;;21.70;51.90;;;;;;1543591;76;780;-65
2023/02/12 00:57:33;;;;;;;;;;;21.60;51.80;;;;;;1536850;75;1654;-65
2023/02/12 00:59:36;;;;;;;;;;;21.60;51.80;;;;;;1553756;75;750;-65
2023/02/12 01:01:38;;;;;;;;;;;21.60;51.80;;;;;;1545672;76;1927;-64
2023/02/12 01:03:40;;;;;;;;;;;21.60;51.80;;;;;;1542715;75;702;-68
2023/02/12 01:05:42;;;;;;;;;;;21.60;52.10;;;;;;1545897;76;697;-65
2023/02/12 01:07:44;;;;;;;;;;;21.60;52.10;;;;;;1537046;76;743;-65
2023/02/12 01:09:45;;;;;;;;;;;21.60;52.10;;;;;;1535120;76;666;-66
2023/02/12 01:11:47;;;;;;;;;;;21.60;52.10;;;;;;1543754;75;1138;-65
2023/02/12 01:13:49;;;;;;;;;;;21.60;52.10;;;;;;1550269;75;730;-63
2023/02/12 01:15:53;;;;;;;;;;;21.60;52.20;;;;;;1537945;76;856;-65
2023/02/12 01:17:55;;;;;;;;;;;21.60;52.20;;;;;;1559533;76;1670;-64
2023/02/12 01:19:57;;;;;;;;;;;21.50;52.20;;;;;;1546075;76;809;-64
2023/02/12 01:21:59;;;;;;;;;;;21.60;52.30;;;;;;1560980;76;1927;-64
2023/02/12 01:24:01;;;;;;;;;;;21.60;52.30;;;;;;1562572;75;763;-65
2023/02/12 01:26:03;;;;;;;;;;;21.60;52.30;;;;;;1558929;75;795;-66
2023/02/12 01:28:05;;;;;;;;;;;21.50;52.30;;;;;;1549556;75;775;-62
2023/02/12 01:30:08;;;;;;;;;;;21.50;52.30;;;;;;1562382;76;898;-64
2023/02/12 01:32:10;;;;;;;;;;;21.50;52.20;;;;;;1559856;75;1172;-66
2023/02/12 01:34:12;;;;;;;;;;;21.50;52.40;;;;;;1536837;75;832;-65
2023/02/12 01:36:14;;;;;;;;;;;21.50;52.40;;;;;;1534346;76;837;-65
2023/02/12 01:38:16;;;;;;;;;;;21.50;52.30;;;;;;1542659;76;726;-64
2023/02/12 01:40:18;;;;;;;;;;;21.60;52.20;;;;;;1535866;76;710;-65
2023/02/12 01:42:20;;;;;;;;;;;21.60;52.10;;;;;;1542841;75;1957;-64
2023/02/12 01:44:24;;;;;;;;;;;21.60;52.00;;;;;;1539831;75;749;-66
2023/02/12 01:46:26;;;;;;;;;;;21.60;52.00;;;;;;1539183;76;1761;-65
2023/02/12 01:48:29;;;;;;;;;;;21.60;52.10;;;;;;1534598;76;692;-65
2023/02/12 01:50:31;;;;;;;;;;;21.50;52.00;;;;;;1535518;75;1848;-65
2023/02/12 01:52:34;;;;;;;;;;;21.60;52.10;;;;;;1535578;75;1150;-64
2023/02/12 01:54:36;;;;;;;;;;;21.60;52.10;;;;;;1537303;76;727;-65
2023/02/12 01:56:37;;;;;;;;;;;21.60;52.00;;;;;;1541864;75;725;-64
2023/02/12 01:58:40;;;;;;;;;;;21.60;51.90;;;;;;1540699;75;782;-65
2023/02/12 02:00:42;;;;;;;;;;;21.50;52.00;;;;;;1540958;75;799;-68
2023/02/12 02:02:44;;;;;;;;;;;21.60;52.00;;;;;;1542189;75;1939;-64
2023/02/12 02:04:47;;;;;;;;;;;21.60;52.00;;;;;;1546429;76;1573;-65
2023/02/12 02:06:59;;;;;;;;;;;21.50;52.00;;;;;;1539962;76;746;-65
2023/02/12 02:09:01;;;;;;;;;;;21.60;51.90;;;;;;1534632;76;694;-65
2023/02/12 02:14:31;;;;;;;;;;;21.50;52.00;;;;;;1540672;75;670;-65
2023/02/12 02:15:26;;;;;;;;;;;21.50;52.00;;;;;;1545454;76;1640;-65
2023/02/12 02:17:30;;;;;;;;;;;21.50;52.10;;;;;;1537190;76;759;-70
2023/02/12 02:19:36;;;;;;;;;;;21.50;52.30;;;;;;1538601;76;682;-73
2023/02/12 02:21:57;;;;;;;;;;;21.60;52.00;;;;;;1542194;75;1144;-70
2023/02/12 02:24:06;;;;;;;;;;;21.60;51.80;;;;;;1538147;76;705;-71
2023/02/12 02:26:10;;;;;;;;;;;21.60;51.70;;;;;;1539960;76;750;-71
2023/02/12 02:28:25;;;;;;;;;;;21.60;51.60;;;;;;1538214;75;1591;-72
2023/02/12 02:30:31;;;;;;;;;;;21.60;51.50;;;;;;1537858;75;940;-72
2023/02/12 02:32:38;;;;;;;;;;;21.60;51.50;;;;;;1535737;75;1242;-72
2023/02/12 02:34:40;;;;;;;;;;;21.60;51.50;;;;;;1543968;75;767;-71
2023/02/12 02:36:44;;;;;;;;;;;21.60;51.50;;;;;;1535971;75;748;-72
2023/02/12 02:38:50;;;;;;;;;;;21.60;51.40;;;;;;1533144;75;689;-72
2023/02/12 02:40:59;;;;;;;;;;;21.60;51.40;;;;;;1544528;75;718;-71
2023/02/12 02:43:03;;;;;;;;;;;21.60;51.40;;;;;;1544602;75;1960;-73
2023/02/12 02:45:09;;;;;;;;;;;21.60;51.40;;;;;;1537678;75;695;-71
2023/02/12 02:47:12;;;;;;;;;;;21.50;51.50;;;;;;1535637;75;2097;-72
2023/02/12 02:49:15;;;;;;;;;;;21.60;51.50;;;;;;1543044;76;761;-72
2023/02/12 02:51:25;;;;;;;;;;;21.60;51.50;;;;;;1530864;75;1580;-72
2023/02/12 02:53:28;;;;;;;;;;;21.50;51.50;;;;;;1544576;75;736;-74
2023/02/12 02:55:32;;;;;;;;;;;21.50;51.40;;;;;;1533844;76;894;-70
2023/02/12 02:57:35;;;;;;;;;;;21.60;51.40;;;;;;1540763;75;788;-72
2023/02/12 02:59:39;;;;;;;;;;;21.60;51.40;;;;;;1537914;75;1831;-71
2023/02/12 03:01:44;;;;;;;;;;;21.50;51.40;;;;;;1547852;75;1165;-71
2023/02/12 03:03:47;;;;;;;;;;;21.50;51.40;;;;;;1537716;75;1928;-72
2023/02/12 03:05:50;;;;;;;;;;;21.50;51.40;;;;;;1537400;75;617;-73
2023/02/12 03:07:53;;;;;;;;;;;21.50;51.40;;;;;;1535392;76;752;-72
2023/02/12 03:09:57;;;;;;;;;;;21.50;51.40;;;;;;1537522;76;732;-74
2023/02/12 03:12:01;;;;;;;;;;;21.50;51.40;;;;;;1541883;75;1815;-73
2023/02/12 03:14:07;;;;;;;;;;;21.50;51.50;;;;;;1542753;75;932;-71
2023/02/12 03:16:09;;;;;;;;;;;21.50;51.60;;;;;;1540290;75;1014;-71
2023/02/12 03:18:12;;;;;;;;;;;21.50;51.70;;;;;;1539355;76;681;-70
2023/02/12 03:20:15;;;;;;;;;;;21.50;51.80;;;;;;1537546;76;696;-71
2023/02/12 03:22:18;;;;;;;;;;;21.50;52.00;;;;;;1535862;75;1939;-71
2023/02/12 03:24:24;;;;;;;;;;;21.50;52.00;;;;;;1537748;75;636;-70
2023/02/12 03:26:28;;;;;;;;;;;21.50;52.10;;;;;;1543500;75;720;-71
2023/02/12 03:28:31;;;;;;;;;;;21.50;52.00;;;;;;1537739;76;790;-70
2023/02/12 03:30:38;;;;;;;;;;;21.60;52.00;;;;;;1543981;75;793;-71
2023/02/12 03:32:44;;;;;;;;;;;21.50;51.90;;;;;;1538590;76;1171;-72
2023/02/12 03:34:50;;;;;;;;;;;21.60;51.90;;;;;;1531285;76;1059;-72
2023/02/12 03:36:53;;;;;;;;;;;21.60;51.80;;;;;;1540047;75;725;-73
2023/02/12 03:38:56;;;;;;;;;;;21.60;51.90;;;;;;1540423;76;1071;-71
2023/02/12 03:41:02;;;;;;;;;;;21.60;51.90;;;;;;1545897;76;741;-71
2023/02/12 03:43:11;;;;;;;;;;;21.60;51.90;;;;;;1516490;76;1956;-71
2023/02/12 03:45:15;;;;;;;;;;;21.50;51.90;;;;;;1528519;75;1684;-70
2023/02/12 03:47:18;;;;;;;;;;;21.60;52.00;;;;;;1538489;76;1786;-71
2023/02/12 03:49:22;;;;;;;;;;;21.60;52.00;;;;;;1537662;76;765;-70
2023/02/12 03:51:28;;;;;;;;;;;21.60;52.00;;;;;;1543468;75;1150;-72
2023/02/12 03:53:30;;;;;;;;;;;21.50;52.00;;;;;;1535516;75;1601;-71
2023/02/12 03:55:32;;;;;;;;;;;21.50;52.00;;;;;;1538563;75;698;-70
2023/02/12 03:57:36;;;;;;;;;;;21.50;52.00;;;;;;1539626;75;1551;-71
2023/02/12 03:59:38;;;;;;;;;;;21.60;51.90;;;;;;1543674;75;703;-72
2023/02/12 04:01:41;;;;;;;;;;;21.60;51.90;;;;;;1543571;75;1112;-72
2023/02/12 04:03:42;;;;;;;;;;;21.60;51.90;;;;;;1543378;76;1919;-71
2023/02/12 04:05:44;;;;;;;;;;;21.50;51.80;;;;;;1539127;75;796;-71
2023/02/12 04:07:46;;;;;;;;;;;21.50;51.90;;;;;;1535193;76;654;-73
2023/02/12 04:09:48;;;;;;;;;;;21.50;51.80;;;;;;1539152;75;794;-68
2023/02/12 04:11:57;;;;;;;;;;;21.50;51.90;;;;;;1540589;75;1148;-70
2023/02/12 04:14:04;;;;;;;;;;;21.60;51.80;;;;;;1545518;75;813;-70
2023/02/12 04:16:13;;;;;;;;;;;21.60;51.80;;;;;;1534966;76;1871;-70
2023/02/12 04:18:17;;;;;;;;;;;21.50;51.90;;;;;;1535051;75;1957;-70
2023/02/12 04:20:20;;;;;;;;;;;21.60;51.80;;;;;;1542089;76;1616;-69
2023/02/12 04:22:26;;;;;;;;;;;21.50;51.80;;;;;;1545042;75;2016;-71
2023/02/12 04:24:30;;;;;;;;;;;21.50;51.80;;;;;;1546757;75;1111;-70
2023/02/12 04:26:33;;;;;;;;;;;21.50;51.80;;;;;;1540972;76;1656;-70
2023/02/12 04:28:46;;;;;;;;;;;21.50;51.80;;;;;;1538135;76;1065;-69
2023/02/12 04:30:49;;;;;;;;;;;21.60;51.80;;;;;;1539857;76;1112;-73
2023/02/12 04:32:52;;;;;;;;;;;21.50;51.80;;;;;;1558123;75;1819;-73
2023/02/12 04:34:56;;;;;;;;;;;21.60;51.80;;;;;;1559258;76;717;-72
2023/02/12 04:36:59;;;;;;;;;;;21.50;51.80;;;;;;1551747;75;754;-71
2023/02/12 04:39:03;;;;;;;;;;;21.50;51.80;;;;;;1552780;75;737;-72
2023/02/12 04:41:05;;;;;;;;;;;21.60;51.70;;;;;;1551436;75;625;-73
2023/02/12 04:43:07;;;;;;;;;;;21.60;51.70;;;;;;1547595;76;1939;-73
2023/02/12 04:45:10;;;;;;;;;;;21.60;51.70;;;;;;1551291;75;730;-70
2023/02/12 04:47:12;;;;;;;;;;;21.50;51.70;;;;;;1559558;76;696;-71
2023/02/12 04:49:15;;;;;;;;;;;21.60;51.60;;;;;;1554320;75;707;-71
2023/02/12 04:51:17;;;;;;;;;;;21.60;51.70;;;;;;1554894;76;1145;-71
2023/02/12 04:53:19;;;;;;;;;;;21.50;51.80;;;;;;1555463;75;1526;-71
2023/02/12 04:55:21;;;;;;;;;;;21.60;51.80;;;;;;1560345;76;809;-72
2023/02/12 04:57:23;;;;;;;;;;;21.60;51.70;;;;;;1558563;76;704;-71
2023/02/12 04:59:25;;;;;;;;;;;21.60;51.60;;;;;;1549078;76;810;-71
2023/02/12 05:01:27;;;;;;;;;;;21.60;51.60;;;;;;1558421;76;1145;-71
2023/02/12 05:03:29;;;;;;;;;;;21.60;51.50;;;;;;1545849;75;1911;-72
2023/02/12 05:05:31;;;;;;;;;;;21.60;51.50;;;;;;1562786;75;749;-72
2023/02/12 05:07:33;;;;;;;;;;;21.60;51.50;;;;;;1541889;75;777;-72
2023/02/12 05:09:34;;;;;;;;;;;21.50;51.40;;;;;;1562204;75;734;-71
2023/02/12 05:11:36;;;;;;;;;;;21.60;51.40;;;;;;1558018;75;1136;-71
2023/02/12 05:13:38;;;;;;;;;;;21.60;51.40;;;;;;1558484;75;704;-70
2023/02/12 05:15:40;;;;;;;;;;;21.60;51.40;;;;;;1553741;75;711;-71
2023/02/12 05:17:44;;;;;;;;;;;21.60;51.40;;;;;;1557246;75;721;-72
2023/02/12 05:19:47;;;;;;;;;;;21.60;51.40;;;;;;1558762;75;1726;-71
2023/02/12 05:21:52;;;;;;;;;;;21.60;51.40;;;;;;1550627;76;1118;-71
2023/02/12 05:23:54;;;;;;;;;;;21.50;51.40;;;;;;1550684;75;1931;-69
2023/02/12 05:25:57;;;;;;;;;;;21.50;51.50;;;;;;1557836;76;774;-71
2023/02/12 05:27:59;;;;;;;;;;;21.50;51.50;;;;;;1554053;76;730;-71
2023/02/12 05:30:01;;;;;;;;;;;21.50;51.50;;;;;;1563010;75;687;-71
2023/02/12 05:32:03;;;;;;;;;;;21.50;51.50;;;;;;1559350;76;1198;-72
2023/02/12 05:34:06;;;;;;;;;;;21.50;51.40;;;;;;1556905;75;768;-72
2023/02/12 05:36:09;;;;;;;;;;;21.50;51.40;;;;;;1560296;76;747;-69
2023/02/12 05:38:11;;;;;;;;;;;21.50;51.40;;;;;;1550189;76;678;-71
2023/02/12 05:40:13;;;;;;;;;;;21.50;51.40;;;;;;1556477;76;754;-71
2023/02/12 05:42:15;;;;;;;;;;;21.50;51.50;;;;;;1558534;75;1142;-71
2023/02/12 05:44:16;;;;;;;;;;;21.50;51.40;;;;;;1550145;75;1940;-71
2023/02/12 05:46:19;;;;;;;;;;;21.50;51.40;;;;;;1552541;76;663;-72
2023/02/12 05:48:20;;;;;;;;;;;21.50;51.40;;;;;;1560033;76;672;-71
2023/02/12 05:50:22;;;;;;;;;;;21.50;51.50;;;;;;1551482;76;721;-72
2023/02/12 05:52:24;;;;;;;;;;;21.50;51.50;;;;;;1558967;75;1082;-70
2023/02/12 05:54:26;;;;;;;;;;;21.50;51.50;;;;;;1549910;75;695;-70
2023/02/12 05:56:29;;;;;;;;;;;21.50;51.50;;;;;;1551646;76;728;-70
2023/02/12 05:58:30;;;;;;;;;;;21.50;51.50;;;;;;1559130;75;727;-69
2023/02/12 06:00:32;;;;;;;;;;;21.50;51.50;;;;;;1552774;75;739;-70
2023/02/12 06:02:34;;;;;;;;;;;21.50;51.50;;;;;;1554885;75;1107;-72
2023/02/12 06:04:36;;;;;;;;;;;21.50;51.60;;;;;;1554106;75;1942;-71
2023/02/12 06:06:40;;;;;;;;;;;21.50;51.60;;;;;;1558384;75;791;-67
2023/02/12 06:08:41;;;;;;;;;;;21.50;52.00;;;;;;1563073;75;1684;-68
2023/02/12 06:10:43;;;;;;;;;;;21.30;52.60;;;;;;1550722;75;748;-67
2023/02/12 06:12:45;;;;;;;;;;;21.30;52.40;;;;;;1551316;76;1141;-67
2023/02/12 06:14:47;;;;;;;;;;;21.30;52.40;;;;;;1556857;75;805;-68
2023/02/12 06:16:49;;;;;;;;;;;21.40;52.40;;;;;;1557635;76;890;-67
2023/02/12 06:18:51;;;;;;;;;;;21.30;52.40;;;;;;1559391;75;752;-68
2023/02/12 06:20:53;;;;;;;;;;;21.40;52.20;;;;;;1560657;76;725;-67
2023/02/12 06:22:55;;;;;;;;;;;21.40;52.20;;;;;;1553562;75;1121;-67
2023/02/12 06:24:57;;;;;;;;;;;21.40;52.30;;;;;;1557396;76;1943;-68
2023/02/12 06:26:59;;;;;;;;;;;21.40;52.20;;;;;;1555815;76;706;-70
2023/02/12 06:29:01;;;;;;;;;;;21.40;52.20;;;;;;1557131;75;731;-67
2023/02/12 06:31:03;;;;;;;;;;;21.40;52.30;;;;;;1554578;75;792;-67
2023/02/12 06:33:05;;;;;;;;;;;21.30;52.20;;;;;;1554786;76;1233;-68
2023/02/12 06:35:07;;;;;;;;;;;21.40;52.20;;;;;;1555475;76;712;-67
2023/02/12 06:37:08;;;;;;;;;;;21.40;52.20;;;;;;1554589;76;913;-68
2023/02/12 06:39:12;;;;;;;;;;;21.40;52.20;;;;;;1557440;75;754;-68
2023/02/12 06:41:14;;;;;;;;;;;21.40;52.20;;;;;;1554702;75;1179;-67
2023/02/12 06:43:16;;;;;;;;;;;21.40;52.20;;;;;;1557689;76;1928;-67
2023/02/12 06:45:18;;;;;;;;;;;21.40;52.10;;;;;;1555851;75;1518;-66
2023/02/12 06:47:19;;;;;;;;;;;21.40;52.10;;;;;;1555670;75;735;-68
2023/02/12 06:49:21;;;;;;;;;;;21.50;52.10;;;;;;1556428;76;742;-69
2023/02/12 06:51:24;;;;;;;;;;;21.50;52.10;;;;;;1558219;75;1150;-68
2023/02/12 06:53:26;;;;;;;;;;;21.50;52.10;;;;;;1556451;75;729;-68
2023/02/12 06:55:27;;;;;;;;;;;21.50;52.00;;;;;;1560406;76;720;-66
2023/02/12 06:57:29;;;;;;;;;;;21.50;52.10;;;;;;1557636;76;745;-70
2023/02/12 06:59:31;;;;;;;;;;;21.50;52.00;;;;;;1547849;75;725;-70
2023/02/12 07:01:33;;;;;;;;;;;21.60;52.00;;;;;;1554045;76;1127;-68
2023/02/12 07:03:36;;;;;;;;;;;21.50;52.00;;;;;;1553024;75;1920;-67
2023/02/12 07:05:41;;;;;;;;;;;21.50;51.90;;;;;;1558321;75;677;-67
2023/02/12 07:07:43;;;;;;;;;;;21.50;51.90;;;;;;1556529;75;710;-68
2023/02/12 07:09:45;;;;;;;;;;;21.40;52.10;;;;;;1549260;75;691;-69
2023/02/12 07:11:47;;;;;;;;;;;21.50;52.30;;;;;;1551202;75;1149;-67
2023/02/12 07:13:49;;;;;;;;;;;21.50;52.10;;;;;;1552130;75;742;-68
2023/02/12 07:15:51;;;;;;;;;;;21.50;52.10;;;;;;1558657;76;749;-68
2023/02/12 07:17:53;;;;;;;;;;;21.50;51.90;;;;;;1560585;75;804;-66
2023/02/12 07:19:54;;;;;;;;;;;21.60;51.80;;;;;;1559394;75;799;-67
2023/02/12 07:21:56;;;;;;;;;;;21.60;51.60;;;;;;1547744;75;1148;-66
2023/02/12 07:23:58;;;;;;;;;;;21.60;51.50;;;;;;1557650;75;1921;-69
2023/02/12 07:26:01;;;;;;;;;;;21.60;51.50;;;;;;1557341;76;784;-65
2023/02/12 07:28:03;;;;;;;;;;;21.60;51.50;;;;;;1554705;76;686;-68
2023/02/12 07:30:06;;;;;;;;;;;21.60;51.50;;;;;;1557199;75;747;-67
2023/02/12 07:32:07;;;;;;;;;;;21.60;51.40;;;;;;1555460;75;1178;-66
2023/02/12 07:34:09;;;;;;;;;;;21.60;51.30;;;;;;1559213;76;739;-66
2023/02/12 07:36:12;;;;;;;;;;;21.50;51.30;;;;;;1564350;75;708;-67
2023/02/12 07:38:14;;;;;;;;;;;21.60;51.40;;;;;;1561767;75;774;-67
2023/02/12 07:40:16;;;;;;;;;;;21.60;51.30;;;;;;1558438;76;786;-67
2023/02/12 07:42:18;;;;;;;;;;;21.60;51.20;;;;;;1556479;76;1583;-67
2023/02/12 07:44:20;;;;;;;;;;;21.60;51.20;;;;;;1558028;75;1926;-66
2023/02/12 07:46:28;;;;;;;;;;;21.50;51.20;;;;;;1557840;76;752;-67
2023/02/12 07:48:29;;;;;;;;;;;21.60;51.10;;;;;;1560385;75;1664;-69
2023/02/12 07:50:31;;;;;;;;;;;21.60;51.20;;;;;;1559732;75;677;-64
2023/02/12 07:52:33;;;;;;;;;;;21.60;51.10;;;;;;1553761;75;1106;-67
2023/02/12 07:54:35;;;;;;;;;;;21.50;51.10;;;;;;1561636;75;718;-67
2023/02/12 07:56:37;;;;;;;;;;;21.50;51.20;;;;;;1559101;75;713;-67
2023/02/12 07:58:40;;;;;;;;;;;21.50;51.20;;;;;;1567332;75;698;-66
2023/02/12 08:00:41;;;;;;;;;;;21.50;51.20;;;;;;1578158;75;746;-64
2023/02/12 08:02:43;;;;;;;;;;;21.50;51.10;;;;;;1575580;74;1147;-70
2023/02/12 08:04:45;;;;;;;;;;;21.50;51.20;;;;;;1579110;74;1931;-68
2023/02/12 08:06:48;;;;;;;;;;;21.40;51.10;;;;;;1575423;74;755;-67
2023/02/12 08:08:51;;;;;;;;;;;21.40;51.20;;;;;;1582044;74;876;-67
2023/02/12 08:10:54;;;;;;;;;;;21.40;51.30;;;;;;1575235;74;779;-69
2023/02/12 08:12:56;;;;;;;;;;;21.40;51.30;;;;;;1575625;74;1106;-67
2023/02/12 08:14:58;;;;;;;;;;;21.30;51.50;;;;;;1575093;74;721;-66
2023/02/12 08:17:00;;;;;;;;;;;21.30;51.50;;;;;;1581457;74;727;-68
2023/02/12 08:19:02;;;;;;;;;;;21.30;51.40;;;;;;1578716;75;720;-68
2023/02/12 08:21:05;;;;;;;;;;;21.30;51.50;;;;;;1573105;74;697;-69
2023/02/12 08:23:07;;;;;;;;;;;21.20;51.40;;;;;;1572518;74;1118;-66
2023/02/12 08:25:09;;;;;;;;;;;21.20;51.40;;;;;;1570823;74;1939;-67
2023/02/12 08:27:11;;;;;;;;;;;21.30;51.60;;;;;;1576251;74;782;-67
2023/02/12 08:29:13;;;;;;;;;;;21.20;51.50;;;;;;1575766;74;722;-70
2023/02/12 08:31:20;;;;;;;;;;;21.30;51.60;;;;;;1581246;74;1142;-68
2023/02/12 08:33:22;;;;;;;;;;;21.30;51.50;;;;;;1569542;74;799;-67
2023/02/12 08:35:23;;;;;;;;;;;21.30;51.60;;;;;;1569669;75;689;-68
2023/02/12 08:37:25;;;;;;;;;;;21.10;51.60;;;;;;1580434;74;1463;-68
2023/02/12 08:39:28;;;;;;;;;;;21.20;51.70;;;;;;1585005;73;790;-68
2023/02/12 08:41:30;;;;;;;;;;;21.20;51.80;;;;;;1579337;75;1262;-70
2023/02/12 08:43:32;;;;;;;;;;;21.10;51.60;;;;;;1573653;74;698;-68
2023/02/12 08:45:33;;;;;;;;;;;21.20;51.80;;;;;;1578528;75;1939;-67
2023/02/12 08:47:35;;;;;;;;;;;21.20;51.70;;;;;;1580130;75;693;-67
2023/02/12 08:49:37;;;;;;;;;;;21.20;51.70;;;;;;1575304;75;713;-66
2023/02/12 08:51:40;;;;;;;;;;;21.30;51.80;;;;;;1577644;75;1152;-67
2023/02/12 08:53:42;;;;;;;;;;;21.20;51.60;;;;;;1570784;74;695;-72
2023/02/12 08:55:48;;;;;;;;;;;21.20;51.60;;;;;;1587221;74;743;-69
2023/02/12 08:57:52;;;;;;;;;;;21.20;51.70;;;;;;1578992;75;755;-66
2023/02/12 08:59:54;;;;;;;;;;;21.20;51.60;;;;;;1561596;74;858;-67
2023/02/12 09:01:56;;;;;;;;;;;21.20;51.60;;;;;;1577971;74;1142;-68
2023/02/12 09:03:57;;;;;;;;;;;21.10;51.70;;;;;;1580483;75;781;-67
2023/02/12 09:06:01;;;;;;;;;;;21.00;51.80;;;;;;1573329;74;1930;-67
2023/02/12 09:08:03;;;;;;;;;;;21.10;52.00;;;;;;1574437;75;774;-67
2023/02/12 09:10:05;;;;;;;;;;;21.00;52.10;;;;;;1575036;74;771;-66
2023/02/12 09:12:07;;;;;;;;;;;21.00;52.20;;;;;;1563009;74;1149;-66
2023/02/12 09:14:10;;;;;;;;;;;21.00;52.20;;;;;;1574912;74;751;-67
2023/02/12 09:16:13;;;;;;;;;;;20.90;52.40;;;;;;1580506;75;727;-69
2023/02/12 09:18:14;;;;;;;;;;;20.90;52.40;;;;;;1577621;75;794;-69
2023/02/12 09:20:16;;;;;;;;;;;20.90;52.50;;;;;;1571803;74;810;-67
2023/02/12 09:22:18;;;;;;;;;;;20.90;52.60;;;;;;1570763;74;1178;-65
2023/02/12 09:24:20;;;;;;;;;;;20.90;52.60;;;;;;1576315;75;1930;-67
2023/02/12 09:26:24;;;;;;;;;;;20.80;52.50;;;;;;1578219;74;740;-67
2023/02/12 09:28:26;;;;;;;;;;;20.80;52.60;;;;;;1579810;74;728;-67
2023/02/12 09:30:28;;;;;;;;;;;20.90;52.80;;;;;;1570938;75;798;-67
2023/02/12 09:32:30;;;;;;;;;;;20.80;52.70;;;;;;1575483;74;1098;-67
2023/02/12 09:34:38;;;;;;;;;;;20.90;52.90;;;;;;1575317;75;1536;-68
2023/02/12 09:36:39;;;;;;;;;;;20.90;52.80;;;;;;1581359;74;733;-66
2023/02/12 09:38:41;;;;;;;;;;;20.80;52.80;;;;;;1578775;74;745;-66
2023/02/12 09:40:51;;;;;;;;;;;20.80;52.80;;;;;;1577827;74;867;-65
2023/02/12 09:43:03;;;;;;;;;;;20.90;53.00;;;;;;1574752;75;2019;-67
2023/02/12 09:45:20;;;;;;;;;;;20.80;52.90;;;;;;1565979;74;1919;-68
2023/02/12 09:47:23;;;;;;;;;;;20.80;52.90;;;;;;1575331;75;1085;-66
2023/02/12 09:49:43;;;;;;;;;;;20.80;53.00;;;;;;1566241;74;729;-68
2023/02/12 09:51:47;;;;;;;;;;;20.80;53.00;;;;;;1573533;74;1141;-69
2023/02/12 09:53:50;;;;;;;;;;;20.80;53.00;;;;;;1560242;74;931;-66
2023/02/12 09:55:52;;;;;;;;;;;20.90;53.10;;;;;;1558340;75;1986;-66
2023/02/12 09:57:54;;;;;;;;;;;20.80;53.00;;;;;;1559927;75;711;-67
2023/02/12 09:59:57;;;;;;;;;;;20.90;53.00;;;;;;1572713;75;781;-69
2023/02/12 10:01:59;;;;;;;;;;;20.90;52.90;;;;;;1567493;74;1127;-66
2023/02/12 10:04:01;;;;;;;;;;;20.90;52.90;;;;;;1572324;74;810;-67
2023/02/12 10:06:04;;;;;;;;;;;20.90;52.80;;;;;;1573435;75;1933;-67
2023/02/12 10:08:11;;;;;;;;;;;20.90;52.90;;;;;;1567777;75;814;-69
2023/02/12 10:10:29;;;;;;;;;;;20.90;53.00;;;;;;1572157;75;757;-68
2023/02/12 10:12:33;;;;;;;;;;;21.00;53.00;;;;;;1565757;75;1152;-67
2023/02/12 10:14:46;;;;;;;;;;;21.00;52.70;;;;;;1571901;74;1886;-70
2023/02/12 10:16:49;;;;;;;;;;;21.00;52.70;;;;;;1574062;74;715;-67
2023/02/12 10:18:53;;;;;;;;;;;21.00;52.60;;;;;;1566300;74;688;-66
2023/02/12 10:20:56;;;;;;;;;;;21.10;52.80;;;;;;1582421;74;1929;-67
2023/02/12 10:23:12;;;;;;;;;;;21.10;52.60;;;;;;1564128;74;1941;-68
2023/02/12 10:25:24;;;;;;;;;;;21.00;52.60;;;;;;1569724;75;1943;-67
2023/02/12 10:27:34;;;;;;;;;;;21.10;52.60;;;;;;1577735;74;686;-68
2023/02/12 10:29:37;;;;;;;;;;;21.10;52.70;;;;;;1569476;75;713;-68
2023/02/12 10:31:40;;;;;;;;;;;21.10;52.70;;;;;;1573040;74;1154;-67
2023/02/12 10:33:44;;;;;;;;;;;21.20;52.30;;;;;;1579363;75;845;-67
2023/02/12 10:35:50;;;;;;;;;;;21.30;52.30;;;;;;1579319;74;1820;-67
2023/02/12 10:37:54;;;;;;;;;;;21.10;52.40;;;;;;1562779;74;1568;-69
2023/02/12 10:40:03;;;;;;;;;;;21.20;52.40;;;;;;1567689;75;739;-71
2023/02/12 10:42:15;;;;;;;;;;;21.20;52.30;;;;;;1576524;74;1175;-71
2023/02/12 10:44:17;;;;;;;;;;;21.30;52.40;;;;;;1576752;74;1811;-71
2023/02/12 10:46:19;;;;;;;;;;;21.20;52.30;;;;;;1581341;75;1939;-69
2023/02/12 10:48:23;;;;;;;;;;;21.10;52.40;;;;;;1581761;75;729;-69
2023/02/12 10:50:35;;;;;;;;;;;21.10;52.60;;;;;;1579042;74;1754;-68
2023/02/12 10:52:56;;;;;;;;;;;21.10;52.70;;;;;;1566757;74;1257;-68
2023/02/12 10:54:57;;;;;;;;;;;21.10;52.60;;;;;;1562984;75;764;-69
2023/02/12 10:56:59;;;;;;;;;;;21.20;52.30;;;;;;1576079;75;739;-68
2023/02/12 10:59:01;;;;;;;;;;;21.20;51.80;;;;;;1565431;75;731;-66
2023/02/12 11:01:03;;;;;;;;;;;21.30;51.50;;;;;;1572694;75;957;-67
2023/02/12 11:03:14;;;;;;;;;;;21.50;51.30;;;;;;1568661;74;1132;-68
2023/02/12 11:05:17;;;;;;;;;;;21.50;51.00;;;;;;1569761;74;1924;-68
2023/02/12 11:07:19;;;;;;;;;;;21.60;50.70;;;;;;1563725;74;1849;-71
2023/02/12 11:09:23;;;;;;;;;;;21.60;50.50;;;;;;1572022;75;812;-69
2023/02/12 11:11:26;;;;;;;;;;;21.60;50.10;;;;;;1569123;75;2031;-69
2023/02/12 11:13:28;;;;;;;;;;;21.60;49.90;;;;;;1563607;74;738;-68
2023/02/12 11:15:32;;;;;;;;;;;21.70;49.80;;;;;;1579916;74;706;-69
2023/02/12 11:17:35;;;;;;;;;;;21.60;49.50;;;;;;1579308;75;1925;-69
2023/02/12 11:19:37;;;;;;;;;;;21.70;49.50;;;;;;1569294;75;802;-68
2023/02/12 11:21:39;;;;;;;;;;;21.60;49.00;;;;;;1564666;75;1111;-68
2023/02/12 11:23:42;;;;;;;;;;;21.70;49.00;;;;;;1570990;74;791;-68
2023/02/12 11:25:43;;;;;;;;;;;21.60;48.60;;;;;;1574620;75;1906;-72
2023/02/12 11:27:47;;;;;;;;;;;21.60;48.50;;;;;;1554902;75;1685;-69
2023/02/12 11:29:50;;;;;;;;;;;21.60;48.10;;;;;;1549378;76;1220;-67
2023/02/12 11:32:03;;;;;;;;;;;21.60;47.90;;;;;;1574187;74;1947;-67
2023/02/12 11:34:09;;;;;;;;;;;21.60;47.70;;;;;;1579903;74;1632;-67
2023/02/12 11:36:13;;;;;;;;;;;21.50;47.60;;;;;;1570375;74;776;-68
2023/02/12 11:38:16;;;;;;;;;;;21.60;47.40;;;;;;1577367;75;2085;-67
2023/02/12 11:40:28;;;;;;;;;;;21.30;46.60;;;;;;1577170;74;1906;-68
2023/02/12 11:42:30;;;;;;;;;;;21.30;47.50;;;;;;1573477;75;1182;-70
2023/02/12 11:44:33;;;;;;;;;;;21.20;47.30;;;;;;1574465;74;730;-68
2023/02/12 11:46:35;;;;;;;;;;;21.20;46.50;;;;;;1561060;75;1919;-67
2023/02/12 11:48:38;;;;;;;;;;;21.10;47.10;;;;;;1558331;74;727;-68
2023/02/12 11:50:40;;;;;;;;;;;21.10;48.10;;;;;;1560325;75;804;-68
2023/02/12 11:52:41;;;;;;;;;;;21.30;47.80;;;;;;1549860;75;1176;-69
2023/02/12 11:54:45;;;;;;;;;;;21.30;47.60;;;;;;1565975;74;670;-68
2023/02/12 11:56:47;;;;;;;;;;;21.40;47.20;;;;;;1576202;73;752;-68
2023/02/12 11:58:49;;;;;;;;;;;21.40;47.00;;;;;;1568356;75;723;-68
2023/02/12 12:01:09;;;;;;;;;;;21.50;46.80;;;;;;1563971;73;677;-68
2023/02/12 12:03:25;;;;;;;;;;;21.40;46.50;;;;;;1570635;73;1129;-68
2023/02/12 12:05:28;;;;;;;;;;;21.40;46.30;;;;;;1566686;75;1917;-68
2023/02/12 12:07:31;;;;;;;;;;;21.40;46.40;;;;;;1559827;75;684;-70
2023/02/12 12:09:34;;;;;;;;;;;21.40;46.40;;;;;;1564270;75;697;-68
2023/02/12 12:11:54;;;;;;;;;;;21.40;46.50;;;;;;1566365;75;1156;-70
2023/02/12 12:14:03;;;;;;;;;;;21.40;46.50;;;;;;1570211;73;737;-69
2023/02/12 12:21:11;;;;;;;;;;;21.30;46.70;;;;;;1576799;73;1688;-70
2023/02/12 12:23:14;;;;;;;;;;;21.30;46.80;;;;;;1575397;75;1549;-68